sensor_id;sensor_type;location;lat;lon;timestamp;P1;durP1;ratioP1;P2;durP2;ratioP2
22995;SDS011;11664;49.774;8.650;2023-06-19T00:02:58;17.70;;;16.52;;
22995;SDS011;11664;49.774;8.650;2023-06-19T00:05:24;14.68;;;12.27;;
22995;SDS011;11664;49.774;8.650;2023-06-19T00:07:56;12.18;;;11.30;;
22995;SDS011;11664;49.774;8.650;2023-06-19T00:10:24;9.90;;;9.10;;
22995;SDS011;11664;49.774;8.650;2023-06-19T00:12:59;11.73;;;10.80;;
22995;SDS011;11664;49.774;8.650;2023-06-19T00:15:25;10.60;;;9.82;;
22995;SDS011;11664;49.774;8.650;2023-06-19T00:20:38;26.10;;;24.60;;
22995;SDS011;11664;49.774;8.650;2023-06-19T00:23:04;22.17;;;20.77;;
22995;SDS011;11664;49.774;8.650;2023-06-19T00:25:37;15.30;;;13.88;;
22995;SDS011;11664;49.774;8.650;2023-06-19T00:28:09;11.95;;;11.05;;
22995;SDS011;11664;49.774;8.650;2023-06-19T00:30:44;19.13;;;17.92;;
22995;SDS011;11664;49.774;8.650;2023-06-19T00:33:11;8.45;;;7.68;;
22995;SDS011;11664;49.774;8.650;2023-06-19T00:35:39;18.45;;;17.33;;
22995;SDS011;11664;49.774;8.650;2023-06-19T00:38:07;12.90;;;11.95;;
22995;SDS011;11664;49.774;8.650;2023-06-19T00:40:33;11.63;;;7.80;;
22995;SDS011;11664;49.774;8.650;2023-06-19T00:42:59;6.88;;;6.22;;
22995;SDS011;11664;49.774;8.650;2023-06-19T00:45:25;8.95;;;8.20;;
22995;SDS011;11664;49.774;8.650;2023-06-19T00:47:51;6.22;;;5.72;;
22995;SDS011;11664;49.774;8.650;2023-06-19T00:50:18;6.30;;;5.70;;
22995;SDS011;11664;49.774;8.650;2023-06-19T00:52:44;6.70;;;6.10;;
22995;SDS011;11664;49.774;8.650;2023-06-19T00:58:00;9.07;;;8.15;;
22995;SDS011;11664;49.774;8.650;2023-06-19T01:00:40;9.05;;;8.25;;
22995;SDS011;11664;49.774;8.650;2023-06-19T01:03:08;7.82;;;7.13;;
22995;SDS011;11664;49.774;8.650;2023-06-19T01:05:34;8.30;;;7.50;;
22995;SDS011;11664;49.774;8.650;2023-06-19T01:11:03;8.13;;;7.40;;
22995;SDS011;11664;49.774;8.650;2023-06-19T01:13:45;8.05;;;7.32;;
22995;SDS011;11664;49.774;8.650;2023-06-19T01:16:28;8.93;;;8.10;;
22995;SDS011;11664;49.774;8.650;2023-06-19T01:18:55;9.60;;;8.70;;
22995;SDS011;11664;49.774;8.650;2023-06-19T01:24:43;8.40;;;7.70;;
22995;SDS011;11664;49.774;8.650;2023-06-19T01:27:14;8.98;;;8.18;;
22995;SDS011;11664;49.774;8.650;2023-06-19T01:29:46;9.95;;;9.05;;
22995;SDS011;11664;49.774;8.650;2023-06-19T01:35:19;12.75;;;11.65;;
22995;SDS011;11664;49.774;8.650;2023-06-19T01:37:52;16.40;;;15.27;;
22995;SDS011;11664;49.774;8.650;2023-06-19T01:40:25;15.75;;;14.52;;
22995;SDS011;11664;49.774;8.650;2023-06-19T01:43:02;24.75;;;23.05;;
22995;SDS011;11664;49.774;8.650;2023-06-19T01:45:32;17.23;;;15.93;;
22995;SDS011;11664;49.774;8.650;2023-06-19T01:48:04;14.00;;;12.90;;
22995;SDS011;11664;49.774;8.650;2023-06-19T01:50:33;12.45;;;11.35;;
22995;SDS011;11664;49.774;8.650;2023-06-19T01:52:58;11.77;;;10.88;;
22995;SDS011;11664;49.774;8.650;2023-06-19T01:58:21;11.57;;;10.68;;
22995;SDS011;11664;49.774;8.650;2023-06-19T02:00:58;10.95;;;9.88;;
22995;SDS011;11664;49.774;8.650;2023-06-19T02:03:24;12.00;;;10.20;;
22995;SDS011;11664;49.774;8.650;2023-06-19T02:08:44;11.57;;;10.57;;
22995;SDS011;11664;49.774;8.650;2023-06-19T02:11:12;12.40;;;11.30;;
22995;SDS011;11664;49.774;8.650;2023-06-19T02:13:44;9.68;;;8.85;;
22995;SDS011;11664;49.774;8.650;2023-06-19T02:19:03;10.40;;;9.35;;
22995;SDS011;11664;49.774;8.650;2023-06-19T02:21:28;11.65;;;9.45;;
22995;SDS011;11664;49.774;8.650;2023-06-19T02:24:00;13.38;;;12.35;;
22995;SDS011;11664;49.774;8.650;2023-06-19T02:26:41;13.75;;;12.68;;
22995;SDS011;11664;49.774;8.650;2023-06-19T02:29:14;16.55;;;15.25;;
22995;SDS011;11664;49.774;8.650;2023-06-19T02:31:52;19.80;;;18.25;;
22995;SDS011;11664;49.774;8.650;2023-06-19T02:34:18;13.48;;;12.32;;
22995;SDS011;11664;49.774;8.650;2023-06-19T02:36:43;14.57;;;13.43;;
22995;SDS011;11664;49.774;8.650;2023-06-19T02:39:12;12.85;;;11.48;;
22995;SDS011;11664;49.774;8.650;2023-06-19T02:41:41;15.57;;;14.48;;
22995;SDS011;11664;49.774;8.650;2023-06-19T02:47:07;12.00;;;10.93;;
22995;SDS011;11664;49.774;8.650;2023-06-19T02:49:39;16.15;;;14.77;;
22995;SDS011;11664;49.774;8.650;2023-06-19T02:52:11;16.75;;;15.57;;
22995;SDS011;11664;49.774;8.650;2023-06-19T02:54:36;19.45;;;17.65;;
22995;SDS011;11664;49.774;8.650;2023-06-19T02:57:02;15.60;;;14.32;;
22995;SDS011;11664;49.774;8.650;2023-06-19T02:59:31;16.33;;;15.15;;
22995;SDS011;11664;49.774;8.650;2023-06-19T03:01:56;17.88;;;14.65;;
22995;SDS011;11664;49.774;8.650;2023-06-19T03:04:25;10.77;;;9.95;;
22995;SDS011;11664;49.774;8.650;2023-06-19T03:07:03;11.63;;;10.73;;
22995;SDS011;11664;49.774;8.650;2023-06-19T03:09:29;21.20;;;19.85;;
22995;SDS011;11664;49.774;8.650;2023-06-19T03:11:55;16.38;;;15.13;;
22995;SDS011;11664;49.774;8.650;2023-06-19T03:14:28;14.45;;;13.30;;
22995;SDS011;11664;49.774;8.650;2023-06-19T03:17:03;11.98;;;11.05;;
22995;SDS011;11664;49.774;8.650;2023-06-19T03:19:42;10.93;;;10.02;;
22995;SDS011;11664;49.774;8.650;2023-06-19T03:22:08;10.93;;;10.10;;
22995;SDS011;11664;49.774;8.650;2023-06-19T03:24:34;9.77;;;8.98;;
22995;SDS011;11664;49.774;8.650;2023-06-19T03:27:01;13.65;;;12.55;;
22995;SDS011;11664;49.774;8.650;2023-06-19T03:29:30;19.58;;;18.30;;
22995;SDS011;11664;49.774;8.650;2023-06-19T03:32:07;32.17;;;30.08;;
22995;SDS011;11664;49.774;8.650;2023-06-19T03:34:39;39.63;;;36.92;;
22995;SDS011;11664;49.774;8.650;2023-06-19T03:37:08;35.88;;;33.63;;
22995;SDS011;11664;49.774;8.650;2023-06-19T03:39:39;32.42;;;30.45;;
22995;SDS011;11664;49.774;8.650;2023-06-19T03:42:05;25.10;;;23.27;;
22995;SDS011;11664;49.774;8.650;2023-06-19T03:44:40;18.52;;;17.13;;
22995;SDS011;11664;49.774;8.650;2023-06-19T03:47:12;13.27;;;12.30;;
22995;SDS011;11664;49.774;8.650;2023-06-19T03:49:40;16.25;;;15.05;;
22995;SDS011;11664;49.774;8.650;2023-06-19T03:52:06;22.58;;;20.77;;
22995;SDS011;11664;49.774;8.650;2023-06-19T03:57:19;22.83;;;21.20;;
22995;SDS011;11664;49.774;8.650;2023-06-19T03:59:44;16.92;;;15.65;;
22995;SDS011;11664;49.774;8.650;2023-06-19T04:02:10;11.75;;;10.80;;
22995;SDS011;11664;49.774;8.650;2023-06-19T04:04:38;16.27;;;15.18;;
22995;SDS011;11664;49.774;8.650;2023-06-19T04:07:07;24.02;;;22.42;;
22995;SDS011;11664;49.774;8.650;2023-06-19T04:09:39;35.30;;;33.17;;
22995;SDS011;11664;49.774;8.650;2023-06-19T04:12:04;15.57;;;14.48;;
22995;SDS011;11664;49.774;8.650;2023-06-19T04:14:40;10.38;;;9.57;;
22995;SDS011;11664;49.774;8.650;2023-06-19T04:17:08;9.43;;;8.70;;
22995;SDS011;11664;49.774;8.650;2023-06-19T04:19:37;9.75;;;8.85;;
22995;SDS011;11664;49.774;8.650;2023-06-19T04:22:08;8.43;;;7.63;;
22995;SDS011;11664;49.774;8.650;2023-06-19T04:24:41;10.40;;;9.52;;
22995;SDS011;11664;49.774;8.650;2023-06-19T04:27:21;8.77;;;7.93;;
22995;SDS011;11664;49.774;8.650;2023-06-19T04:29:47;11.55;;;10.38;;
22995;SDS011;11664;49.774;8.650;2023-06-19T04:32:19;9.63;;;8.93;;
22995;SDS011;11664;49.774;8.650;2023-06-19T04:37:23;8.55;;;7.90;;
22995;SDS011;11664;49.774;8.650;2023-06-19T04:39:51;8.10;;;7.50;;
22995;SDS011;11664;49.774;8.650;2023-06-19T04:42:20;9.77;;;9.07;;
22995;SDS011;11664;49.774;8.650;2023-06-19T04:44:49;11.45;;;10.65;;
22995;SDS011;11664;49.774;8.650;2023-06-19T04:47:21;13.18;;;12.27;;
22995;SDS011;11664;49.774;8.650;2023-06-19T04:49:48;10.88;;;10.07;;
22995;SDS011;11664;49.774;8.650;2023-06-19T04:52:13;8.55;;;7.82;;
22995;SDS011;11664;49.774;8.650;2023-06-19T04:54:39;9.98;;;9.27;;
22995;SDS011;11664;49.774;8.650;2023-06-19T04:57:07;11.77;;;10.98;;
22995;SDS011;11664;49.774;8.650;2023-06-19T04:59:33;13.20;;;12.27;;
22995;SDS011;11664;49.774;8.650;2023-06-19T05:01:59;13.90;;;13.00;;
22995;SDS011;11664;49.774;8.650;2023-06-19T05:04:24;13.23;;;12.40;;
22995;SDS011;11664;49.774;8.650;2023-06-19T05:06:50;9.93;;;9.32;;
22995;SDS011;11664;49.774;8.650;2023-06-19T05:09:16;12.15;;;11.35;;
22995;SDS011;11664;49.774;8.650;2023-06-19T05:11:42;7.30;;;6.75;;
22995;SDS011;11664;49.774;8.650;2023-06-19T05:14:11;8.40;;;7.80;;
22995;SDS011;11664;49.774;8.650;2023-06-19T05:16:36;9.10;;;8.30;;
22995;SDS011;11664;49.774;8.650;2023-06-19T05:19:02;8.88;;;8.18;;
22995;SDS011;11664;49.774;8.650;2023-06-19T05:21:27;9.02;;;7.40;;
22995;SDS011;11664;49.774;8.650;2023-06-19T05:24:02;8.65;;;7.95;;
22995;SDS011;11664;49.774;8.650;2023-06-19T05:26:27;9.18;;;8.40;;
22995;SDS011;11664;49.774;8.650;2023-06-19T05:28:54;8.75;;;7.85;;
22995;SDS011;11664;49.774;8.650;2023-06-19T05:31:20;8.93;;;8.35;;
22995;SDS011;11664;49.774;8.650;2023-06-19T05:33:45;7.82;;;7.32;;
22995;SDS011;11664;49.774;8.650;2023-06-19T05:36:11;7.30;;;6.70;;
22995;SDS011;11664;49.774;8.650;2023-06-19T05:38:36;6.22;;;5.75;;
22995;SDS011;11664;49.774;8.650;2023-06-19T05:41:02;7.40;;;6.80;;
22995;SDS011;11664;49.774;8.650;2023-06-19T05:43:28;6.47;;;5.43;;
22995;SDS011;11664;49.774;8.650;2023-06-19T05:45:54;6.15;;;5.72;;
22995;SDS011;11664;49.774;8.650;2023-06-19T05:48:21;6.07;;;5.53;;
22995;SDS011;11664;49.774;8.650;2023-06-19T05:50:46;6.85;;;5.63;;
22995;SDS011;11664;49.774;8.650;2023-06-19T05:53:15;7.03;;;6.53;;
22995;SDS011;11664;49.774;8.650;2023-06-19T05:55:43;5.40;;;5.00;;
22995;SDS011;11664;49.774;8.650;2023-06-19T05:58:12;6.70;;;5.68;;
22995;SDS011;11664;49.774;8.650;2023-06-19T06:00:37;5.97;;;5.57;;
22995;SDS011;11664;49.774;8.650;2023-06-19T06:03:03;5.63;;;5.07;;
22995;SDS011;11664;49.774;8.650;2023-06-19T06:05:32;6.10;;;5.50;;
22995;SDS011;11664;49.774;8.650;2023-06-19T06:07:57;6.03;;;5.43;;
22995;SDS011;11664;49.774;8.650;2023-06-19T06:10:26;5.22;;;4.75;;
22995;SDS011;11664;49.774;8.650;2023-06-19T06:12:51;5.60;;;5.15;;
22995;SDS011;11664;49.774;8.650;2023-06-19T06:15:17;4.85;;;4.32;;
22995;SDS011;11664;49.774;8.650;2023-06-19T06:17:42;6.40;;;5.90;;
22995;SDS011;11664;49.774;8.650;2023-06-19T06:20:08;6.82;;;6.32;;
22995;SDS011;11664;49.774;8.650;2023-06-19T06:22:37;5.53;;;5.13;;
22995;SDS011;11664;49.774;8.650;2023-06-19T06:25:04;7.40;;;6.82;;
22995;SDS011;11664;49.774;8.650;2023-06-19T06:27:29;5.50;;;5.10;;
22995;SDS011;11664;49.774;8.650;2023-06-19T06:29:55;5.70;;;5.30;;
22995;SDS011;11664;49.774;8.650;2023-06-19T06:32:24;7.10;;;5.00;;
22995;SDS011;11664;49.774;8.650;2023-06-19T06:34:49;6.45;;;5.95;;
22995;SDS011;11664;49.774;8.650;2023-06-19T06:37:15;6.93;;;6.22;;
22995;SDS011;11664;49.774;8.650;2023-06-19T06:39:47;17.50;;;6.75;;
22995;SDS011;11664;49.774;8.650;2023-06-19T06:42:13;5.32;;;4.97;;
22995;SDS011;11664;49.774;8.650;2023-06-19T06:44:38;7.45;;;5.18;;
22995;SDS011;11664;49.774;8.650;2023-06-19T06:47:10;6.47;;;5.25;;
22995;SDS011;11664;49.774;8.650;2023-06-19T06:49:39;5.82;;;5.32;;
22995;SDS011;11664;49.774;8.650;2023-06-19T06:52:07;10.90;;;4.70;;
22995;SDS011;11664;49.774;8.650;2023-06-19T06:54:33;7.22;;;5.97;;
22995;SDS011;11664;49.774;8.650;2023-06-19T06:57:01;9.88;;;9.10;;
22995;SDS011;11664;49.774;8.650;2023-06-19T06:59:27;6.85;;;6.25;;
22995;SDS011;11664;49.774;8.650;2023-06-19T07:01:53;5.95;;;5.40;;
22995;SDS011;11664;49.774;8.650;2023-06-19T07:04:20;7.68;;;6.25;;
22995;SDS011;11664;49.774;8.650;2023-06-19T07:06:45;7.65;;;5.97;;
22995;SDS011;11664;49.774;8.650;2023-06-19T07:09:11;5.88;;;5.38;;
22995;SDS011;11664;49.774;8.650;2023-06-19T07:11:37;7.25;;;6.65;;
22995;SDS011;11664;49.774;8.650;2023-06-19T07:14:08;6.70;;;6.18;;
22995;SDS011;11664;49.774;8.650;2023-06-19T07:16:34;6.93;;;6.32;;
22995;SDS011;11664;49.774;8.650;2023-06-19T07:18:59;8.65;;;8.00;;
22995;SDS011;11664;49.774;8.650;2023-06-19T07:21:25;10.35;;;9.57;;
22995;SDS011;11664;49.774;8.650;2023-06-19T07:23:53;7.93;;;7.32;;
22995;SDS011;11664;49.774;8.650;2023-06-19T07:26:19;8.35;;;7.75;;
22995;SDS011;11664;49.774;8.650;2023-06-19T07:28:45;8.30;;;7.60;;
22995;SDS011;11664;49.774;8.650;2023-06-19T07:31:10;9.68;;;9.00;;
22995;SDS011;11664;49.774;8.650;2023-06-19T07:33:36;9.23;;;8.45;;
22995;SDS011;11664;49.774;8.650;2023-06-19T07:36:01;9.13;;;8.43;;
22995;SDS011;11664;49.774;8.650;2023-06-19T07:38:27;10.82;;;9.90;;
22995;SDS011;11664;49.774;8.650;2023-06-19T07:40:56;8.20;;;7.60;;
22995;SDS011;11664;49.774;8.650;2023-06-19T07:43:21;13.23;;;12.23;;
22995;SDS011;11664;49.774;8.650;2023-06-19T07:45:49;18.05;;;17.00;;
22995;SDS011;11664;49.774;8.650;2023-06-19T07:48:15;10.32;;;9.55;;
22995;SDS011;11664;49.774;8.650;2023-06-19T07:50:41;11.77;;;11.07;;
22995;SDS011;11664;49.774;8.650;2023-06-19T07:53:07;11.38;;;10.57;;
22995;SDS011;11664;49.774;8.650;2023-06-19T07:55:32;15.35;;;14.40;;
22995;SDS011;11664;49.774;8.650;2023-06-19T07:58:00;24.25;;;22.75;;
22995;SDS011;11664;49.774;8.650;2023-06-19T08:00:25;77.97;;;73.85;;
22995;SDS011;11664;49.774;8.650;2023-06-19T08:02:51;16.50;;;15.43;;
22995;SDS011;11664;49.774;8.650;2023-06-19T08:05:16;55.67;;;52.63;;
22995;SDS011;11664;49.774;8.650;2023-06-19T08:07:45;72.15;;;68.38;;
22995;SDS011;11664;49.774;8.650;2023-06-19T08:10:14;21.65;;;20.35;;
22995;SDS011;11664;49.774;8.650;2023-06-19T08:12:42;51.75;;;48.85;;
22995;SDS011;11664;49.774;8.650;2023-06-19T08:15:09;10.63;;;9.82;;
22995;SDS011;11664;49.774;8.650;2023-06-19T08:17:35;10.30;;;9.68;;
22995;SDS011;11664;49.774;8.650;2023-06-19T08:20:04;13.48;;;12.68;;
22995;SDS011;11664;49.774;8.650;2023-06-19T08:22:30;13.18;;;12.32;;
22995;SDS011;11664;49.774;8.650;2023-06-19T08:24:56;10.57;;;9.88;;
22995;SDS011;11664;49.774;8.650;2023-06-19T08:27:22;14.40;;;13.40;;
22995;SDS011;11664;49.774;8.650;2023-06-19T08:29:48;18.13;;;16.98;;
22995;SDS011;11664;49.774;8.650;2023-06-19T08:32:20;11.80;;;10.98;;
22995;SDS011;11664;49.774;8.650;2023-06-19T08:34:45;7.45;;;6.85;;
22995;SDS011;11664;49.774;8.650;2023-06-19T08:37:12;6.15;;;5.60;;
22995;SDS011;11664;49.774;8.650;2023-06-19T08:39:37;7.30;;;6.63;;
22995;SDS011;11664;49.774;8.650;2023-06-19T08:42:07;6.68;;;6.07;;
22995;SDS011;11664;49.774;8.650;2023-06-19T08:44:36;7.35;;;6.75;;
22995;SDS011;11664;49.774;8.650;2023-06-19T08:47:02;12.10;;;11.20;;
22995;SDS011;11664;49.774;8.650;2023-06-19T08:49:35;12.43;;;11.63;;
22995;SDS011;11664;49.774;8.650;2023-06-19T08:52:01;10.10;;;9.23;;
22995;SDS011;11664;49.774;8.650;2023-06-19T08:54:28;10.13;;;9.27;;
22995;SDS011;11664;49.774;8.650;2023-06-19T08:56:54;7.15;;;6.65;;
22995;SDS011;11664;49.774;8.650;2023-06-19T08:59:25;7.13;;;6.55;;
22995;SDS011;11664;49.774;8.650;2023-06-19T09:01:53;8.27;;;7.43;;
22995;SDS011;11664;49.774;8.650;2023-06-19T09:04:20;6.57;;;6.07;;
22995;SDS011;11664;49.774;8.650;2023-06-19T09:07:03;14.32;;;13.45;;
22995;SDS011;11664;49.774;8.650;2023-06-19T09:09:29;30.05;;;28.33;;
22995;SDS011;11664;49.774;8.650;2023-06-19T09:12:06;28.38;;;26.63;;
22995;SDS011;11664;49.774;8.650;2023-06-19T09:14:40;33.67;;;31.73;;
22995;SDS011;11664;49.774;8.650;2023-06-19T09:17:10;17.52;;;16.33;;
22995;SDS011;11664;49.774;8.650;2023-06-19T09:19:48;14.00;;;13.13;;
22995;SDS011;11664;49.774;8.650;2023-06-19T09:22:15;17.05;;;15.90;;
22995;SDS011;11664;49.774;8.650;2023-06-19T09:24:45;29.17;;;27.33;;
22995;SDS011;11664;49.774;8.650;2023-06-19T09:27:13;28.90;;;27.23;;
22995;SDS011;11664;49.774;8.650;2023-06-19T09:29:43;12.20;;;11.32;;
22995;SDS011;11664;49.774;8.650;2023-06-19T09:32:16;12.10;;;11.20;;
22995;SDS011;11664;49.774;8.650;2023-06-19T09:34:43;18.90;;;17.27;;
22995;SDS011;11664;49.774;8.650;2023-06-19T09:37:09;11.05;;;10.30;;
22995;SDS011;11664;49.774;8.650;2023-06-19T09:39:37;8.75;;;8.15;;
22995;SDS011;11664;49.774;8.650;2023-06-19T09:42:03;11.48;;;10.40;;
22995;SDS011;11664;49.774;8.650;2023-06-19T09:44:31;11.60;;;10.55;;
22995;SDS011;11664;49.774;8.650;2023-06-19T09:47:02;15.23;;;14.20;;
22995;SDS011;11664;49.774;8.650;2023-06-19T09:49:32;18.08;;;16.90;;
22995;SDS011;11664;49.774;8.650;2023-06-19T09:52:00;37.30;;;35.08;;
22995;SDS011;11664;49.774;8.650;2023-06-19T09:54:27;12.35;;;11.48;;
22995;SDS011;11664;49.774;8.650;2023-06-19T09:56:53;9.02;;;8.32;;
22995;SDS011;11664;49.774;8.650;2023-06-19T09:59:23;9.05;;;8.40;;
22995;SDS011;11664;49.774;8.650;2023-06-19T10:01:50;11.48;;;10.52;;
22995;SDS011;11664;49.774;8.650;2023-06-19T10:04:16;19.40;;;18.20;;
22995;SDS011;11664;49.774;8.650;2023-06-19T10:06:46;9.52;;;8.73;;
22995;SDS011;11664;49.774;8.650;2023-06-19T10:09:14;9.75;;;9.00;;
22995;SDS011;11664;49.774;8.650;2023-06-19T10:11:50;9.27;;;8.57;;
22995;SDS011;11664;49.774;8.650;2023-06-19T10:14:17;13.48;;;12.50;;
22995;SDS011;11664;49.774;8.650;2023-06-19T10:16:44;7.82;;;7.25;;
22995;SDS011;11664;49.774;8.650;2023-06-19T10:19:16;11.68;;;10.73;;
22995;SDS011;11664;49.774;8.650;2023-06-19T10:21:44;7.47;;;6.88;;
22995;SDS011;11664;49.774;8.650;2023-06-19T10:24:14;8.90;;;8.20;;
22995;SDS011;11664;49.774;8.650;2023-06-19T10:26:43;8.80;;;8.00;;
22995;SDS011;11664;49.774;8.650;2023-06-19T10:29:15;9.95;;;9.20;;
22995;SDS011;11664;49.774;8.650;2023-06-19T10:31:42;8.25;;;7.55;;
22995;SDS011;11664;49.774;8.650;2023-06-19T10:34:09;7.78;;;7.07;;
22995;SDS011;11664;49.774;8.650;2023-06-19T10:36:35;6.85;;;6.25;;
22995;SDS011;11664;49.774;8.650;2023-06-19T10:39:00;7.80;;;6.97;;
22995;SDS011;11664;49.774;8.650;2023-06-19T10:41:26;6.57;;;5.97;;
22995;SDS011;11664;49.774;8.650;2023-06-19T10:46:29;6.78;;;6.28;;
22995;SDS011;11664;49.774;8.650;2023-06-19T10:48:57;6.50;;;5.90;;
22995;SDS011;11664;49.774;8.650;2023-06-19T10:51:26;7.65;;;7.10;;
22995;SDS011;11664;49.774;8.650;2023-06-19T10:53:53;6.53;;;6.03;;
22995;SDS011;11664;49.774;8.650;2023-06-19T10:56:20;6.70;;;6.20;;
22995;SDS011;11664;49.774;8.650;2023-06-19T10:58:47;8.27;;;7.68;;
22995;SDS011;11664;49.774;8.650;2023-06-19T11:01:13;5.88;;;5.18;;
22995;SDS011;11664;49.774;8.650;2023-06-19T11:03:38;4.65;;;4.32;;
22995;SDS011;11664;49.774;8.650;2023-06-19T11:06:04;6.35;;;5.75;;
22995;SDS011;11664;49.774;8.650;2023-06-19T11:08:32;7.07;;;6.28;;
22995;SDS011;11664;49.774;8.650;2023-06-19T11:10:59;6.25;;;5.85;;
22995;SDS011;11664;49.774;8.650;2023-06-19T11:13:25;7.32;;;6.82;;
22995;SDS011;11664;49.774;8.650;2023-06-19T11:15:50;6.43;;;5.82;;
22995;SDS011;11664;49.774;8.650;2023-06-19T11:18:16;6.10;;;5.47;;
22995;SDS011;11664;49.774;8.650;2023-06-19T11:20:43;5.60;;;5.10;;
22995;SDS011;11664;49.774;8.650;2023-06-19T11:23:14;7.55;;;5.38;;
22995;SDS011;11664;49.774;8.650;2023-06-19T11:25:41;11.20;;;10.38;;
22995;SDS011;11664;49.774;8.650;2023-06-19T11:28:11;7.32;;;6.82;;
22995;SDS011;11664;49.774;8.650;2023-06-19T11:30:38;7.38;;;6.68;;
22995;SDS011;11664;49.774;8.650;2023-06-19T11:33:14;7.75;;;7.25;;
22995;SDS011;11664;49.774;8.650;2023-06-19T11:35:40;8.10;;;7.53;;
22995;SDS011;11664;49.774;8.650;2023-06-19T11:38:15;8.65;;;7.85;;
22995;SDS011;11664;49.774;8.650;2023-06-19T11:40:43;7.13;;;6.63;;
22995;SDS011;11664;49.774;8.650;2023-06-19T11:43:10;7.90;;;7.05;;
22995;SDS011;11664;49.774;8.650;2023-06-19T11:45:45;10.55;;;9.80;;
22995;SDS011;11664;49.774;8.650;2023-06-19T11:48:21;7.45;;;6.82;;
22995;SDS011;11664;49.774;8.650;2023-06-19T11:50:47;5.10;;;4.68;;
22995;SDS011;11664;49.774;8.650;2023-06-19T11:53:13;5.38;;;4.97;;
22995;SDS011;11664;49.774;8.650;2023-06-19T11:55:38;7.45;;;6.85;;
22995;SDS011;11664;49.774;8.650;2023-06-19T11:58:04;5.57;;;5.18;;
22995;SDS011;11664;49.774;8.650;2023-06-19T12:00:29;5.50;;;5.00;;
22995;SDS011;11664;49.774;8.650;2023-06-19T12:02:55;5.15;;;4.65;;
22995;SDS011;11664;49.774;8.650;2023-06-19T12:05:23;7.65;;;4.65;;
22995;SDS011;11664;49.774;8.650;2023-06-19T12:07:52;6.20;;;5.60;;
22995;SDS011;11664;49.774;8.650;2023-06-19T12:10:18;5.85;;;5.38;;
22995;SDS011;11664;49.774;8.650;2023-06-19T12:12:43;9.05;;;8.48;;
22995;SDS011;11664;49.774;8.650;2023-06-19T12:15:09;5.30;;;4.82;;
22995;SDS011;11664;49.774;8.650;2023-06-19T12:17:34;5.43;;;5.03;;
22995;SDS011;11664;49.774;8.650;2023-06-19T12:20:01;6.50;;;5.80;;
22995;SDS011;11664;49.774;8.650;2023-06-19T12:22:30;4.85;;;4.45;;
22995;SDS011;11664;49.774;8.650;2023-06-19T12:24:58;6.35;;;5.85;;
22995;SDS011;11664;49.774;8.650;2023-06-19T12:27:23;4.90;;;4.28;;
22995;SDS011;11664;49.774;8.650;2023-06-19T12:29:49;5.43;;;4.90;;
22995;SDS011;11664;49.774;8.650;2023-06-19T12:32:14;5.30;;;4.80;;
22995;SDS011;11664;49.774;8.650;2023-06-19T12:34:40;4.22;;;3.92;;
22995;SDS011;11664;49.774;8.650;2023-06-19T12:37:07;5.25;;;4.85;;
22995;SDS011;11664;49.774;8.650;2023-06-19T12:39:36;5.75;;;5.30;;
22995;SDS011;11664;49.774;8.650;2023-06-19T12:42:01;5.25;;;4.78;;
22995;SDS011;11664;49.774;8.650;2023-06-19T12:44:27;5.70;;;4.47;;
22995;SDS011;11664;49.774;8.650;2023-06-19T12:46:52;5.65;;;5.25;;
22995;SDS011;11664;49.774;8.650;2023-06-19T12:49:18;5.70;;;5.07;;
22995;SDS011;11664;49.774;8.650;2023-06-19T12:51:44;5.50;;;5.10;;
22995;SDS011;11664;49.774;8.650;2023-06-19T12:54:09;6.68;;;4.60;;
22995;SDS011;11664;49.774;8.650;2023-06-19T12:56:35;4.85;;;4.45;;
22995;SDS011;11664;49.774;8.650;2023-06-19T12:59:00;5.40;;;4.90;;
22995;SDS011;11664;49.774;8.650;2023-06-19T13:01:26;5.07;;;4.57;;
22995;SDS011;11664;49.774;8.650;2023-06-19T13:03:52;4.63;;;4.32;;
22995;SDS011;11664;49.774;8.650;2023-06-19T13:06:17;5.32;;;4.93;;
22995;SDS011;11664;49.774;8.650;2023-06-19T13:08:44;4.80;;;4.40;;
22995;SDS011;11664;49.774;8.650;2023-06-19T13:11:10;4.85;;;4.45;;
22995;SDS011;11664;49.774;8.650;2023-06-19T13:13:35;5.68;;;5.18;;
22995;SDS011;11664;49.774;8.650;2023-06-19T13:16:07;5.30;;;4.90;;
22995;SDS011;11664;49.774;8.650;2023-06-19T13:18:34;5.95;;;5.45;;
22995;SDS011;11664;49.774;8.650;2023-06-19T13:21:00;6.18;;;5.65;;
22995;SDS011;11664;49.774;8.650;2023-06-19T13:23:25;5.60;;;5.20;;
22995;SDS011;11664;49.774;8.650;2023-06-19T13:25:51;6.03;;;5.60;;
22995;SDS011;11664;49.774;8.650;2023-06-19T13:28:16;5.03;;;4.65;;
22995;SDS011;11664;49.774;8.650;2023-06-19T13:30:42;5.45;;;4.53;;
22995;SDS011;11664;49.774;8.650;2023-06-19T13:33:08;5.72;;;5.22;;
22995;SDS011;11664;49.774;8.650;2023-06-19T13:35:34;10.40;;;5.40;;
22995;SDS011;11664;49.774;8.650;2023-06-19T13:38:00;6.18;;;5.68;;
22995;SDS011;11664;49.774;8.650;2023-06-19T13:40:25;5.10;;;4.75;;
22995;SDS011;11664;49.774;8.650;2023-06-19T13:42:51;5.75;;;5.15;;
22995;SDS011;11664;49.774;8.650;2023-06-19T13:45:16;5.68;;;5.28;;
22995;SDS011;11664;49.774;8.650;2023-06-19T13:47:45;4.93;;;4.50;;
22995;SDS011;11664;49.774;8.650;2023-06-19T13:50:13;5.15;;;4.75;;
22995;SDS011;11664;49.774;8.650;2023-06-19T13:52:43;4.45;;;4.05;;
22995;SDS011;11664;49.774;8.650;2023-06-19T13:55:12;4.50;;;4.10;;
22995;SDS011;11664;49.774;8.650;2023-06-19T13:57:39;4.28;;;3.97;;
22995;SDS011;11664;49.774;8.650;2023-06-19T14:00:06;4.50;;;4.20;;
22995;SDS011;11664;49.774;8.650;2023-06-19T14:02:32;4.57;;;4.20;;
22995;SDS011;11664;49.774;8.650;2023-06-19T14:04:58;5.10;;;4.75;;
22995;SDS011;11664;49.774;8.650;2023-06-19T14:07:24;4.28;;;3.97;;
22995;SDS011;11664;49.774;8.650;2023-06-19T14:09:51;4.65;;;4.25;;
22995;SDS011;11664;49.774;8.650;2023-06-19T14:12:18;3.65;;;3.42;;
22995;SDS011;11664;49.774;8.650;2023-06-19T14:14:43;4.80;;;4.40;;
22995;SDS011;11664;49.774;8.650;2023-06-19T14:17:09;4.55;;;4.10;;
22995;SDS011;11664;49.774;8.650;2023-06-19T14:19:35;6.30;;;5.80;;
22995;SDS011;11664;49.774;8.650;2023-06-19T14:22:00;6.90;;;6.40;;
22995;SDS011;11664;49.774;8.650;2023-06-19T14:24:27;5.85;;;5.45;;
22995;SDS011;11664;49.774;8.650;2023-06-19T14:26:52;5.07;;;4.68;;
22995;SDS011;11664;49.774;8.650;2023-06-19T14:29:24;6.20;;;5.57;;
22995;SDS011;11664;49.774;8.650;2023-06-19T14:31:52;4.32;;;4.03;;
22995;SDS011;11664;49.774;8.650;2023-06-19T14:34:18;6.18;;;5.78;;
22995;SDS011;11664;49.774;8.650;2023-06-19T14:36:45;4.40;;;4.00;;
22995;SDS011;11664;49.774;8.650;2023-06-19T14:39:11;4.47;;;4.07;;
22995;SDS011;11664;49.774;8.650;2023-06-19T14:41:36;4.88;;;4.57;;
22995;SDS011;11664;49.774;8.650;2023-06-19T14:44:02;5.18;;;4.75;;
22995;SDS011;11664;49.774;8.650;2023-06-19T14:46:29;5.40;;;4.90;;
22995;SDS011;11664;49.774;8.650;2023-06-19T14:48:56;4.82;;;4.43;;
22995;SDS011;11664;49.774;8.650;2023-06-19T14:51:23;4.68;;;4.38;;
22995;SDS011;11664;49.774;8.650;2023-06-19T14:53:49;5.15;;;4.75;;
22995;SDS011;11664;49.774;8.650;2023-06-19T14:56:15;5.07;;;4.68;;
22995;SDS011;11664;49.774;8.650;2023-06-19T14:58:40;5.05;;;4.70;;
22995;SDS011;11664;49.774;8.650;2023-06-19T15:01:09;6.47;;;5.97;;
22995;SDS011;11664;49.774;8.650;2023-06-19T15:03:35;5.07;;;4.75;;
22995;SDS011;11664;49.774;8.650;2023-06-19T15:06:02;9.32;;;5.22;;
22995;SDS011;11664;49.774;8.650;2023-06-19T15:08:28;4.70;;;4.40;;
22995;SDS011;11664;49.774;8.650;2023-06-19T15:10:53;4.70;;;4.30;;
22995;SDS011;11664;49.774;8.650;2023-06-19T15:13:19;5.07;;;4.72;;
22995;SDS011;11664;49.774;8.650;2023-06-19T15:15:45;5.65;;;5.18;;
22995;SDS011;11664;49.774;8.650;2023-06-19T15:18:11;4.95;;;4.65;;